Time;durP1;ratioP1;P1;durP2;ratioP2;P2;SDS_P1;SDS_P2;PMS_P1;PMS_P2;Temp;Humidity;BMP_temperature;BMP_pressure;BME280_temperature;BME280_humidity;BME280_pressure;Samples;Min_cycle;Max_cycle;Signal;HPM_P1;HPM_P2
2022/11/10 00:02:26;;;;;;;48.98;31.57;;;;;;;5.43;100.00;98348.00;1832594;78;20963;-59
2022/11/10 00:05:12;;;;;;;46.00;31.37;;;;;;;5.38;100.00;98344.48;1832593;78;21092;-59
2022/11/10 00:08:01;;;;;;;44.15;31.07;;;;;;;5.31;100.00;98350.50;1832378;77;20810;-59
2022/11/10 00:11:00;;;;;;;49.35;31.48;;;;;;;5.22;100.00;98352.80;1784198;79;20861;-58
2022/11/10 00:17:00;;;;;;;46.28;30.32;;;;;;;5.05;100.00;98351.23;1796364;80;20861;-59
2022/11/10 00:19:45;;;;;;;41.53;29.60;;;;;;;4.97;100.00;98356.44;1796231;80;22106;-59
2022/11/10 00:22:36;;;;;;;72.12;33.05;;;;;;;4.93;100.00;98359.30;1796289;80;21052;-59
2022/11/10 00:25:21;;;;;;;63.65;31.73;;;;;;;4.90;100.00;98355.80;1814889;78;20861;-60
2022/11/10 00:28:06;;;;;;;;;;;;;;;4.92;100.00;98359.56;1835256;77;20909;-58
2022/11/10 00:30:53;;;;;;;41.23;30.23;;;;;;;4.93;100.00;98360.63;1832593;78;20100;-60
2022/11/10 00:33:39;;;;;;;45.15;31.07;;;;;;;4.95;100.00;98363.03;1832685;77;21411;-59
2022/11/10 00:36:26;;;;;;;47.73;32.63;;;;;;;4.98;100.00;98360.70;1832473;77;21448;-59
2022/11/10 00:39:11;;;;;;;54.30;31.77;;;;;;;5.02;100.00;98359.16;1832548;77;20857;-59
2022/11/10 00:41:58;;;;;;;48.85;32.48;;;;;;;5.03;100.00;98352.81;1832176;77;20833;-58
2022/11/10 00:44:43;;;;;;;43.23;30.82;;;;;;;5.04;100.00;98353.08;1832554;77;21436;-58
2022/11/10 00:47:29;;;;;;;43.50;31.33;;;;;;;5.04;100.00;98354.41;1832418;77;21253;-59
2022/11/10 00:50:14;;;;;;;63.45;31.82;;;;;;;5.07;100.00;98361.08;1832295;77;20904;-58
2022/11/10 00:52:59;;;;;;;63.55;33.38;;;;;;;5.05;100.00;98357.34;1832533;78;20865;-59
2022/11/10 00:55:44;;;;;;;43.13;30.97;;;;;;;5.07;100.00;98356.58;1833909;77;21457;-59
2022/11/10 00:58:29;;;;;;;;;;;;;;;5.13;100.00;98354.80;1851962;77;20884;-59
2022/11/10 01:01:15;;;;;;;42.25;29.48;;;;;;;5.16;100.00;98356.42;1849026;77;21092;-59
2022/11/10 01:04:00;;;;;;;59.90;31.85;;;;;;;5.18;100.00;98360.95;1849053;77;20979;-58
2022/11/10 01:06:47;;;;;;;62.38;32.75;;;;;;;5.22;100.00;98364.75;1849066;77;20904;-58
2022/11/10 01:09:32;;;;;;;45.58;31.05;;;;;;;5.24;100.00;98369.80;1848613;77;20952;-59
2022/11/10 01:12:17;;;;;;;41.20;29.72;;;;;;;5.27;100.00;98360.83;1849325;77;20837;-59
2022/11/10 01:15:04;;;;;;;41.75;28.95;;;;;;;5.34;100.00;98368.61;1849318;77;21168;-58
2022/11/10 01:17:51;;;;;;;52.13;30.72;;;;;;;5.41;100.00;98366.57;1849120;77;20884;-59
2022/11/10 01:20:36;;;;;;;79.45;29.48;;;;;;;5.37;100.00;98370.23;1849109;77;20861;-58
2022/11/10 01:23:21;;;;;;;41.33;28.40;;;;;;;5.35;100.00;98369.67;1849426;77;20907;-60
2022/11/10 01:26:06;;;;;;;41.97;26.83;;;;;;;5.32;100.00;98368.84;1849473;77;21167;-58
2022/11/10 01:28:51;;;;;;;47.85;27.37;;;;;;;5.31;100.00;98371.23;1831538;77;22041;-58
2022/11/10 01:31:36;;;;;;;56.70;28.17;;;;;;;5.34;100.00;98369.42;1819171;79;20895;-59
2022/11/10 01:34:22;;;;;;;50.35;29.23;;;;;;;5.33;100.00;98369.13;1836233;78;20896;-60
2022/11/10 01:37:10;;;;;;;38.28;27.62;;;;;;;5.29;100.00;98363.23;1840831;78;21416;-58
2022/11/10 01:39:55;;;;;;;38.28;26.15;;;;;;;5.29;100.00;98362.71;1840887;78;20967;-59
2022/11/10 01:42:56;;;;;;;38.00;26.73;;;;;;;5.34;100.00;98365.44;1841001;78;21219;-58
2022/11/10 01:45:52;;;;;;;63.63;28.38;;;;;;;5.37;100.00;98363.59;1840691;78;20951;-59
2022/11/10 01:48:49;;;;;;;69.55;28.70;;;;;;;5.37;100.00;98358.28;1840807;78;20833;-59
2022/11/10 01:51:47;;;;;;;42.20;27.42;;;;;;;5.36;100.00;98363.33;1840823;78;20909;-60
2022/11/10 01:54:37;;;;;;;36.00;24.65;;;;;;;5.35;100.00;98359.58;1840807;77;20896;-59
2022/11/10 01:57:24;;;;;;;45.58;24.77;;;;;;;5.35;100.00;98359.05;1847012;77;21230;-59
2022/11/10 02:00:11;;;;;;;43.60;25.20;;;;;;;5.35;100.00;98359.58;1850623;77;21371;-58
2022/11/10 02:03:28;;;;;;;60.98;26.02;;;;;;;5.30;100.00;98355.55;1850306;77;20825;-59
2022/11/10 02:06:14;;;;;;;34.65;23.60;;;;;;;5.28;100.00;98356.30;1850339;77;20955;-59
2022/11/10 02:08:59;;;;;;;40.28;25.12;;;;;;;5.25;100.00;98360.25;1822498;77;20869;-59
2022/11/10 02:11:44;;;;;;;42.88;24.90;;;;;;;5.23;100.00;98361.02;1850461;77;21160;-59
2022/11/10 02:14:30;;;;;;;62.40;24.05;;;;;;;5.26;100.00;98363.20;1850418;77;20853;-59
2022/11/10 02:17:16;;;;;;;59.30;26.30;;;;;;;5.26;100.00;98363.20;1850311;77;21399;-59
2022/11/10 02:20:05;;;;;;;35.23;24.95;;;;;;;5.23;100.00;98358.37;1850540;77;21328;-58
2022/11/10 02:34:24;;;;;;;33.13;24.10;;;;;;;5.19;100.00;98370.55;1850284;77;20880;-58
2022/11/10 02:37:10;;;;;;;31.00;22.55;;;;;;;5.19;100.00;98371.88;1850487;77;20896;-58
2022/11/10 02:39:55;;;;;;;32.35;22.77;;;;;;;5.19;100.00;98377.19;1850562;77;21992;-58
2022/11/10 02:42:40;;;;;;;40.83;24.13;;;;;;;5.19;100.00;98381.69;1850482;77;20940;-58
2022/11/10 02:45:25;;;;;;;37.80;24.30;;;;;;;5.12;100.00;98377.08;1850613;77;20853;-59
2022/11/10 02:48:13;;;;;;;35.38;24.05;;;;;;;5.09;100.00;98382.87;1850444;77;20919;-61
2022/11/10 02:50:58;;;;;;;34.73;24.77;;;;;;;5.06;100.00;98393.48;1850503;77;20837;-60
2022/11/10 02:53:44;;;;;;;31.52;23.27;;;;;;;5.01;100.00;98384.12;1850674;77;21979;-59
2022/11/10 02:56:30;;;;;;;42.35;26.57;;;;;;;4.99;100.00;98385.41;1850462;77;20967;-60
2022/11/10 02:59:15;;;;;;;50.20;28.15;;;;;;;4.96;100.00;98388.02;1850782;77;21440;-58
2022/11/10 03:02:00;;;;;;;36.10;26.55;;;;;;;4.99;100.00;98387.55;1850445;77;20837;-59
2022/11/10 03:04:45;;;;;;;37.70;24.53;;;;;;;5.03;100.00;98389.17;1850735;77;20971;-57
2022/11/10 03:07:30;;;;;;;44.60;24.33;;;;;;;5.04;100.00;98384.94;1851317;77;22039;-61
2022/11/10 03:10:15;;;;;;;47.45;24.15;;;;;;;5.03;100.00;98392.64;1850457;77;22201;-58
2022/11/10 03:13:02;;;;;;;51.15;24.32;;;;;;;5.02;100.00;98389.69;1850315;77;20865;-58
2022/11/10 03:15:48;;;;;;;31.02;22.05;;;;;;;4.95;100.00;98390.91;1850419;77;20833;-59
2022/11/10 03:18:34;;;;;;;28.62;21.27;;;;;;;4.89;100.00;98380.77;1850816;77;21438;-58
2022/11/10 03:21:19;;;;;;;28.90;21.90;;;;;;;4.86;100.00;98371.95;1850808;77;21368;-58
2022/11/10 03:24:05;;;;;;;41.08;23.22;;;;;;;4.82;100.00;98372.16;1850508;77;20876;-57
2022/11/10 03:26:51;;;;;;;34.35;22.27;;;;;;;4.79;100.00;98372.64;1850444;77;20856;-59
2022/11/10 03:29:36;;;;;;;30.50;22.77;;;;;;;4.80;100.00;98368.95;1850621;77;20976;-59
2022/11/10 03:32:21;;;;;;;27.22;20.60;;;;;;;4.82;100.00;98372.98;1850614;77;20833;-58
2022/11/10 03:35:07;;;;;;;35.70;20.35;;;;;;;4.80;100.00;98368.95;1850430;77;21094;-58
2022/11/10 03:37:54;;;;;;;43.83;20.95;;;;;;;4.76;100.00;98371.80;1850331;77;20979;-58
2022/11/10 03:40:40;;;;;;;46.37;22.32;;;;;;;4.76;100.00;98366.48;1850646;77;21344;-59
2022/11/10 03:43:25;;;;;;;30.20;21.65;;;;;;;4.72;100.00;98371.49;1850399;77;20915;-58
2022/11/10 03:46:11;;;;;;;30.15;20.85;;;;;;;4.69;100.00;98373.81;1850597;77;26971;-59
2022/11/10 03:48:56;;;;;;;24.00;19.37;;;;;;;4.68;100.00;98373.03;1850534;77;21227;-59
2022/11/10 03:51:41;;;;;;;38.40;22.87;;;;;;;4.63;100.00;98368.98;1850390;77;20865;-58
2022/11/10 03:54:26;;;;;;;47.43;23.20;;;;;;;4.57;100.00;98363.84;1850541;77;20951;-60
2022/11/10 03:57:11;;;;;;;28.43;21.20;;;;;;;4.57;100.00;98365.17;1847856;77;20908;-58
2022/11/10 03:59:57;;;;;;;28.35;20.85;;;;;;;4.58;100.00;98369.41;1841180;77;21392;-59
2022/11/10 04:02:42;;;;;;;32.13;22.22;;;;;;;4.59;100.00;98365.17;1841068;78;21211;-59
2022/11/10 04:17:49;;;;;;;33.80;20.70;;;;;;;4.52;100.00;98362.44;1840928;78;21152;-58
2022/11/10 04:20:41;;;;;;;29.50;21.45;;;;;;;4.51;100.00;98365.60;1840719;78;20909;-60
2022/11/10 04:23:30;;;;;;;45.67;21.35;;;;;;;4.54;100.00;98370.95;1840904;78;20864;-58
2022/11/10 04:26:31;;;;;;;23.30;20.12;;;;;;;4.55;100.00;98371.22;1840903;78;20877;-59
2022/11/10 04:29:18;;;;;;;25.52;19.37;;;;;;;4.57;100.00;98369.15;1840801;78;20947;-58
2022/11/10 04:32:04;;;;;;;25.40;18.80;;;;;;;4.60;100.00;98373.95;1841023;77;22033;-58
2022/11/10 04:34:49;;;;;;;39.27;20.97;;;;;;;4.63;100.00;98374.28;1841001;77;20896;-58
2022/11/10 04:37:34;;;;;;;47.13;20.32;;;;;;;4.64;100.00;98376.42;1841050;77;20865;-59
2022/11/10 04:40:20;;;;;;;26.70;20.60;;;;;;;4.61;100.00;98379.55;1840870;78;20880;-59
2022/11/10 04:43:05;;;;;;;27.70;19.57;;;;;;;4.59;100.00;98376.34;1841065;78;20877;-59
2022/11/10 04:45:50;;;;;;;28.55;19.00;;;;;;;4.58;100.00;98377.37;1840946;78;21096;-60
2022/11/10 04:48:37;;;;;;;24.43;19.87;;;;;;;4.57;100.00;98380.54;1840728;78;20865;-60
2022/11/10 04:51:31;;;;;;;28.20;19.50;;;;;;;4.58;100.00;98377.37;1841022;78;28449;-59
2022/11/10 04:54:17;;;;;;;25.82;19.35;;;;;;;4.59;100.00;98380.31;1840858;78;20877;-59
2022/11/10 04:57:02;;;;;;;24.40;18.20;;;;;;;4.55;100.00;98376.00;1842110;77;21356;-58
2022/11/10 04:59:48;;;;;;;26.85;18.82;;;;;;;4.50;100.00;98375.14;1850510;77;21627;-59
2022/11/10 05:02:33;;;;;;;24.12;18.92;;;;;;;4.45;100.00;98381.69;1850438;77;20943;-59
2022/11/10 05:05:18;;;;;;;24.80;19.15;;;;;;;4.45;100.00;98381.69;1850470;77;20817;-59
2022/11/10 05:08:04;;;;;;;24.18;18.27;;;;;;;4.44;100.00;98392.00;1850577;77;20868;-59
2022/11/10 05:10:49;;;;;;;;;;;;;;;4.44;100.00;98390.67;1853344;77;21368;-58
2022/11/10 05:13:34;;;;;;;33.20;20.08;;;;;;;4.43;100.00;98394.39;1850384;77;21221;-59
2022/11/10 05:16:20;;;;;;;31.70;21.50;;;;;;;4.41;100.00;98391.96;1850571;77;20896;-58
2022/11/10 05:19:07;;;;;;;20.75;18.32;;;;;;;4.43;100.00;98387.22;1850334;77;21706;-59
2022/11/10 05:21:53;;;;;;;21.80;18.27;;;;;;;4.48;100.00;98395.77;1850333;77;20994;-60
2022/11/10 05:24:39;;;;;;;25.60;18.87;;;;;;;4.49;100.00;98396.06;1850279;77;20915;-59
2022/11/10 05:27:24;;;;;;;32.83;19.85;;;;;;;4.51;100.00;98393.97;1850834;77;21838;-58
2022/11/10 05:30:10;;;;;;;22.57;19.50;;;;;;;4.53;100.00;98398.52;1850531;77;20916;-60
2022/11/10 05:32:56;;;;;;;24.87;19.62;;;;;;;4.52;100.00;98396.92;1850227;77;20892;-59
2022/11/10 05:35:41;;;;;;;21.87;19.17;;;;;;;4.53;100.00;98399.84;1850602;77;20910;-60
2022/11/10 05:38:26;;;;;;;29.80;19.52;;;;;;;4.51;100.00;98397.44;1850471;77;20999;-59
2022/11/10 05:41:12;;;;;;;25.97;19.30;;;;;;;4.55;100.00;98404.38;1850348;77;21104;-59
2022/11/10 05:43:57;;;;;;;27.58;20.27;;;;;;;4.56;100.00;98408.13;1850317;77;21423;-60
2022/11/10 05:46:42;;;;;;;25.83;19.00;;;;;;;4.56;100.00;98408.13;1844450;77;21451;-60
2022/11/10 05:49:27;;;;;;;27.48;19.42;;;;;;;4.58;100.00;98411.86;1798644;79;21431;-59
2022/11/10 05:52:12;;;;;;;26.53;20.93;;;;;;;4.60;100.00;98409.77;1784578;80;21399;-60
2022/11/10 05:54:57;;;;;;;29.18;20.43;;;;;;;4.62;100.00;98413.78;1784356;80;21761;-59
2022/11/10 05:57:44;;;;;;;29.13;22.37;;;;;;;4.65;100.00;98417.80;1789393;78;21007;-60
2022/11/10 06:00:30;;;;;;;41.20;35.40;;;;;;;4.70;100.00;98416.56;1799266;79;20869;-59
2022/11/10 06:03:19;;;;;;;53.13;44.27;;;;;;;4.72;100.00;98419.77;1799889;79;21717;-59
2022/11/10 06:06:06;;;;;;;34.35;29.87;;;;;;;4.74;100.00;98409.20;1800109;79;21518;-59
2022/11/10 06:08:52;;;;;;;33.50;23.05;;;;;;;4.79;100.00;98408.47;1800347;79;22118;-59
2022/11/10 06:11:39;;;;;;;28.77;21.90;;;;;;;4.86;100.00;98417.07;1800370;79;20881;-59
2022/11/10 06:14:25;;;;;;;26.17;21.90;;;;;;;4.90;100.00;98418.19;1799760;79;21022;-59
2022/11/10 06:17:10;;;;;;;31.90;26.05;;;;;;;4.93;100.00;98420.36;1799689;79;20948;-59
2022/11/10 06:19:55;;;;;;;33.48;26.40;;;;;;;4.94;100.00;98429.95;1800536;79;20888;-60
2022/11/10 06:22:41;;;;;;;36.20;29.60;;;;;;;4.98;100.00;98427.08;1800485;79;22037;-59
2022/11/10 06:25:32;;;;;;;26.07;22.50;;;;;;;5.02;100.00;98428.70;1800308;79;20960;-61
2022/11/10 06:28:17;;;;;;;25.92;22.42;;;;;;;5.04;100.00;98432.72;1800256;79;20916;-61
2022/11/10 06:31:03;;;;;;;26.25;22.05;;;;;;;5.06;100.00;98426.67;1800624;79;20928;-61
2022/11/10 06:33:48;;;;;;;30.57;23.02;;;;;;;5.06;100.00;98433.31;1800783;79;20881;-60
2022/11/10 06:36:33;;;;;;;28.20;23.20;;;;;;;5.05;100.00;98438.33;1800907;79;21153;-60
2022/11/10 06:39:19;;;;;;;36.20;28.00;;;;;;;5.09;100.00;98443.94;1800711;79;20873;-61
2022/11/10 06:42:04;;;;;;;37.75;28.23;;;;;;;5.09;100.00;98452.72;1800742;79;20876;-60
2022/11/10 06:44:49;;;;;;;53.00;43.03;;;;;;;5.13;100.00;98443.23;1799803;79;21086;-60
2022/11/10 06:47:35;;;;;;;36.98;29.72;;;;;;;5.18;100.00;98452.58;1800649;79;20893;-59
2022/11/10 06:50:22;;;;;;;33.88;26.33;;;;;;;5.19;100.00;98446.23;1800534;79;21893;-59
2022/11/10 06:53:08;;;;;;;28.77;23.33;;;;;;;5.20;100.00;98454.48;1800755;79;20913;-59
2022/11/10 06:55:53;;;;;;;26.97;24.00;;;;;;;5.24;100.00;98455.59;1773660;79;21024;-59
2022/11/10 06:58:38;;;;;;;26.82;23.77;;;;;;;5.28;100.00;98451.40;1803639;79;20889;-59
2022/11/10 07:01:25;;;;;;;31.90;23.83;;;;;;;5.31;100.00;98450.92;1808237;79;21565;-59
2022/11/10 07:04:10;;;;;;;23.20;20.70;;;;;;;5.34;100.00;98452.28;1807730;79;22112;-59
2022/11/10 07:06:55;;;;;;;37.65;33.70;;;;;;;5.37;100.00;98459.77;1806843;79;21454;-61
2022/11/10 07:09:41;;;;;;;40.03;35.58;;;;;;;5.38;100.00;98454.20;1808278;78;20985;-61
2022/11/10 07:12:28;;;;;;;38.48;33.75;;;;;;;5.39;100.00;98462.44;1839580;78;20976;-60
2022/11/10 07:15:16;;;;;;;29.60;26.40;;;;;;;5.40;100.00;98476.01;1839811;77;20873;-60
2022/11/10 07:18:03;;;;;;;28.98;23.10;;;;;;;5.44;100.00;98479.77;1815116;77;21113;-59
2022/11/10 07:20:49;;;;;;;32.40;27.37;;;;;;;5.46;100.00;98490.95;1823582;77;20947;-59
2022/11/10 07:23:38;;;;;;;36.90;32.15;;;;;;;5.49;100.00;98493.13;1818502;78;21034;-59
2022/11/10 07:26:23;;;;;;;30.65;26.10;;;;;;;5.49;100.00;98485.16;1828658;77;20959;-60
2022/11/10 07:29:08;;;;;;;31.10;23.55;;;;;;;5.53;100.00;98487.59;1826802;78;20995;-59
2022/11/10 07:31:55;;;;;;;32.95;21.85;;;;;;;5.58;100.00;98482.09;1828153;77;22839;-59
2022/11/10 07:34:40;;;;;;;39.33;29.02;;;;;;;5.61;100.00;98484.23;1829874;77;21086;-59
2022/11/10 07:37:26;;;;;;;35.63;31.90;;;;;;;5.66;100.00;98478.98;1813960;77;21474;-59
2022/11/10 07:40:12;;;;;;;35.28;27.62;;;;;;;5.71;100.00;98483.05;1819248;78;21013;-59
2022/11/10 07:42:58;;;;;;;33.48;28.62;;;;;;;5.78;100.00;98483.66;1831073;78;21427;-59
2022/11/10 07:45:45;;;;;;;29.15;24.30;;;;;;;5.81;100.00;98479.19;1811387;77;21706;-59
2022/11/10 07:48:31;;;;;;;35.92;28.83;;;;;;;5.87;100.00;98472.38;1830527;77;20868;-59
2022/11/10 07:51:18;;;;;;;30.65;25.45;;;;;;;5.91;100.00;98476.14;1831890;77;21011;-59
2022/11/10 07:54:03;;;;;;;;;;;;;;;5.95;100.00;98479.13;1825383;77;20964;-59
2022/11/10 07:56:48;;;;;;;45.78;31.52;;;;;;;5.97;100.00;98471.70;1825142;77;20068;-58
2022/11/10 08:02:09;;;;;;;25.23;20.85;;;;;;;6.11;100.00;98479.56;1856403;76;22170;-58
2022/11/10 08:04:55;;;;;;;28.20;25.30;;;;;;;6.09;100.00;98479.02;1795351;77;20924;-59
2022/11/10 08:07:42;;;;;;;27.90;25.00;;;;;;;6.13;100.00;98480.12;1811962;78;21397;-59
2022/11/10 08:10:28;;;;;;;24.67;19.52;;;;;;;6.15;100.00;98478.81;1813966;78;21487;-59
2022/11/10 08:13:30;;;;;;;22.75;17.87;;;;;;;6.19;100.00;98481.80;1794189;78;21008;-59
2022/11/10 08:16:22;;;;;;;19.85;17.70;;;;;;;6.24;100.00;98479.72;1811329;77;20964;-59
2022/11/10 08:19:14;;;;;;;27.00;21.35;;;;;;;6.28;100.00;98485.61;1831759;77;21437;-61
2022/11/10 08:22:00;;;;;;;25.77;18.90;;;;;;;6.32;100.00;98489.37;1839314;77;21112;-59
2022/11/10 08:24:45;;;;;;;22.50;17.10;;;;;;;6.36;100.00;98490.47;1812731;78;20878;-59
2022/11/10 08:27:31;;;;;;;;;;;;;;;6.38;100.00;98492.37;1817271;78;20923;-58
2022/11/10 08:30:16;;;;;;;27.52;20.30;;;;;;;6.41;100.00;98499.83;1815607;78;20087;-58
2022/11/10 08:33:03;;;;;;;29.45;23.00;;;;;;;6.43;100.00;98501.71;1812211;78;21428;-60
2022/11/10 08:35:50;;;;;;;28.57;22.10;;;;;;;6.46;100.00;98506.55;1812518;78;21186;-58
2022/11/10 08:38:35;;;;;;;30.02;25.40;;;;;;;6.49;100.00;98495.41;1816638;79;20894;-57
2022/11/10 08:41:21;;;;;;;24.85;20.45;;;;;;;6.52;100.00;98504.74;1815596;78;21028;-57
2022/11/10 08:44:15;;;;;;;23.70;19.20;;;;;;;6.53;100.00;98505.81;1811778;79;20919;-59
2022/11/10 08:47:03;;;;;;;19.27;17.05;;;;;;;6.56;100.00;98513.83;1823568;77;20955;-59
2022/11/10 08:49:48;;;;;;;21.77;18.30;;;;;;;6.57;100.00;98517.55;1807246;77;21223;-59
2022/11/10 08:52:33;;;;;;;32.78;24.72;;;;;;;6.57;100.00;98519.44;1819643;77;20983;-59
2022/11/10 08:55:22;;;;;;;44.18;34.78;;;;;;;6.60;100.00;98516.25;1811667;79;20997;-59
2022/11/10 08:58:13;;;;;;;26.87;21.35;;;;;;;6.65;100.00;98514.97;1809944;79;21005;-60
2022/11/10 09:00:59;;;;;;;30.32;21.00;;;;;;;6.69;100.00;98512.08;1816236;77;21005;-59
2022/11/10 09:03:47;;;;;;;20.82;17.70;;;;;;;6.74;100.00;98519.59;1792152;78;21478;-59
2022/11/10 09:06:33;;;;;;;32.35;22.80;;;;;;;6.79;100.00;98516.98;1792591;79;21486;-60
2022/11/10 09:09:18;;;;;;;35.83;24.43;;;;;;;6.80;100.00;98518.59;1796934;78;20912;-58
2022/11/10 09:12:05;;;;;;;36.88;25.43;;;;;;;6.80;100.00;98521.26;1807088;78;20931;-59
2022/11/10 09:14:52;;;;;;;33.02;24.45;;;;;;;6.80;100.00;98525.77;1800903;78;21418;-59
2022/11/10 09:17:39;;;;;;;37.48;26.12;;;;;;;6.79;100.00;98522.82;1824695;78;21172;-57
2022/11/10 09:20:27;;;;;;;25.48;20.80;;;;;;;6.80;100.00;98527.11;1820927;78;20928;-58
2022/11/10 09:23:16;;;;;;;25.70;21.33;;;;;;;6.80;100.00;98527.91;1821235;78;21023;-60
2022/11/10 09:26:02;;;;;;;23.98;19.82;;;;;;;6.84;100.00;98529.53;1815633;78;21345;-58
2022/11/10 09:28:49;;;;;;;23.97;20.83;;;;;;;6.87;100.00;98525.04;1821234;78;21549;-58
2022/11/10 09:31:40;;;;;;;25.90;19.48;;;;;;;6.88;100.00;98531.43;1821083;78;21398;-60
2022/11/10 09:34:33;;;;;;;18.07;16.12;;;;;;;6.93;100.00;98527.20;1784719;78;20990;-58
2022/11/10 09:37:22;;;;;;;22.93;18.07;;;;;;;6.99;100.00;98527.53;1816402;78;21047;-59
2022/11/10 09:40:40;;;;;;;20.43;17.98;;;;;;;7.06;100.00;98530.27;1825200;78;20985;-59
2022/11/10 09:43:40;;;;;;;21.80;18.45;;;;;;;7.14;100.00;98531.63;1800295;78;20966;-58
2022/11/10 09:46:39;;;;;;;22.22;18.70;;;;;;;7.16;100.00;98530.32;1824216;78;21125;-59
2022/11/10 09:49:32;;;;;;;;;;;;;;;7.19;100.00;98534.34;1823527;77;21449;-59
2022/11/10 09:52:21;;;;;;;20.32;18.07;;;;;;;7.25;100.00;98541.33;1817912;78;20092;-60
2022/11/10 09:55:44;;;;;;;20.70;17.98;;;;;;;7.26;100.00;98541.06;1817853;78;21251;-59
2022/11/10 09:58:38;;;;;;;19.52;17.27;;;;;;;7.26;100.00;98545.58;1821292;77;20983;-59
2022/11/10 10:01:44;;;;;;;26.27;22.55;;;;;;;7.28;100.00;98546.13;1789629;79;21317;-59
2022/11/10 10:05:06;;;;;;;25.88;21.77;;;;;;;7.32;100.00;98547.24;1802843;79;20881;-59
2022/11/10 10:08:10;;;;;;;25.15;20.77;;;;;;;7.38;100.00;98544.35;1802232;77;21052;-59
2022/11/10 10:11:36;;;;;;;33.65;23.15;;;;;;;7.48;100.00;98540.95;1802506;79;20994;-58
2022/11/10 10:14:55;;;;;;;;;;;;;;;7.59;100.00;98546.09;1803708;79;21066;-58
2022/11/10 10:17:55;;;;;;;23.60;20.00;;;;;;;7.74;100.00;98539.24;1798283;78;21115;-59
2022/11/10 10:21:19;;;;;;;28.55;22.35;;;;;;;7.83;100.00;98549.16;1796803;77;20998;-60
2022/11/10 10:24:13;;;;;;;24.82;21.48;;;;;;;7.93;100.00;98549.22;1801181;79;20990;-60
2022/11/10 10:27:02;;;;;;;21.68;19.20;;;;;;;8.02;100.00;98554.33;1810962;77;20921;-60
2022/11/10 10:29:50;;;;;;;25.12;20.40;;;;;;;8.03;100.00;98554.58;1790805;77;20936;-58
2022/11/10 10:32:37;;;;;;;25.70;19.52;;;;;;;8.05;100.00;98551.16;1803411;78;21534;-58
2022/11/10 10:35:22;;;;;;;25.62;20.00;;;;;;;8.06;100.00;98550.07;1794495;79;20939;-58
2022/11/10 10:38:12;;;;;;;29.50;22.73;;;;;;;8.06;100.00;98550.07;1780465;78;20975;-58
2022/11/10 10:41:12;;;;;;;33.05;29.40;;;;;;;8.09;100.00;98546.89;1793915;79;20877;-59
2022/11/10 10:44:00;;;;;;;25.12;21.30;;;;;;;8.12;100.00;98557.05;1805700;79;21011;-58
2022/11/10 10:46:57;;;;;;;27.75;17.10;;;;;;;8.14;100.00;98554.92;1795979;77;21062;-59
2022/11/10 10:49:42;;;;;;;32.08;22.52;;;;;;;8.16;100.00;98546.64;1782044;79;21086;-59
2022/11/10 10:52:27;;;;;;;30.00;26.80;;;;;;;8.18;100.00;98540.52;1801071;79;20943;-59
2022/11/10 10:55:12;;;;;;;24.00;21.40;;;;;;;8.21;100.00;98542.14;1790811;79;21449;-59
2022/11/10 10:58:18;;;;;;;21.45;18.60;;;;;;;8.23;100.00;98548.02;1798017;79;21500;-59
2022/11/10 11:01:29;;;;;;;24.27;17.10;;;;;;;8.23;100.00;98544.02;1797907;79;21994;-59
2022/11/10 11:04:35;;;;;;;32.28;22.77;;;;;;;8.24;100.00;98544.27;1793241;77;21093;-59
2022/11/10 11:07:22;;;;;;;22.62;19.60;;;;;;;8.33;100.00;98532.60;1804879;77;21007;-58
2022/11/10 11:10:31;;;;;;;24.00;19.75;;;;;;;8.46;100.00;98536.63;1800483;77;21459;-58
2022/11/10 11:13:25;;;;;;;22.55;17.65;;;;;;;8.61;100.00;98535.34;1801999;79;21012;-58
2022/11/10 11:16:13;;;;;;;26.95;20.60;;;;;;;8.74;100.00;98534.28;1802183;79;20888;-59
2022/11/10 11:18:59;;;;;;;36.53;20.57;;;;;;;8.80;100.00;98536.44;1800293;79;20964;-59
2022/11/10 11:22:34;;;;;;;27.70;21.40;;;;;;;8.86;100.00;98531.36;1801581;79;21389;-60
2022/11/10 11:25:38;;;;;;;23.35;18.17;;;;;;;8.90;100.00;98535.90;1800068;79;20963;-59
2022/11/10 11:28:35;;;;;;;28.35;20.10;;;;;;;8.93;100.00;98537.24;1801528;79;21042;-59
2022/11/10 11:32:02;;;;;;;24.55;18.87;;;;;;;8.96;100.00;98536.72;1805492;78;21372;-59
2022/11/10 11:35:07;;;;;;;24.45;18.62;;;;;;;9.03;100.00;98531.91;1800762;77;20940;-60
2022/11/10 11:38:19;;;;;;;25.08;18.65;;;;;;;9.04;100.00;98538.88;1796187;77;21003;-60
2022/11/10 11:41:46;;;;;;;27.32;19.98;;;;;;;9.05;100.00;98525.77;1798957;79;20996;-60
2022/11/10 11:44:49;;;;;;;21.73;19.50;;;;;;;9.06;100.00;98531.39;1801698;79;21015;-59
2022/11/10 11:48:18;;;;;;;22.05;18.45;;;;;;;9.06;100.00;98529.24;1796907;79;21101;-59
2022/11/10 11:51:31;;;;;;;28.25;23.20;;;;;;;9.07;100.00;98532.97;1799961;77;20955;-59
2022/11/10 11:54:59;;;;;;;28.17;21.87;;;;;;;9.06;100.00;98531.39;1799990;79;20904;-59
2022/11/10 11:58:17;;;;;;;23.32;20.43;;;;;;;9.19;100.00;98524.16;1803724;79;20960;-59
2022/11/10 12:01:25;;;;;;;24.25;17.10;;;;;;;9.46;100.00;98518.00;1796906;77;20881;-59
2022/11/10 12:04:30;;;;;;;32.55;25.23;;;;;;;9.70;100.00;98522.76;1803067;77;21060;-59
2022/11/10 12:07:34;;;;;;;20.45;17.55;;;;;;;9.87;100.00;98520.58;1809615;77;20962;-59
2022/11/10 12:10:50;;;;;;;22.45;17.82;;;;;;;10.06;99.68;98522.36;1802349;77;21427;-59
2022/11/10 12:14:10;;;;;;;28.98;19.87;;;;;;;10.25;99.16;98517.22;1802707;78;21039;-58
2022/11/10 12:17:23;;;;;;;22.17;17.65;;;;;;;10.39;98.18;98515.55;1802763;77;21482;-58
2022/11/10 12:20:19;;;;;;;25.90;19.23;;;;;;;10.40;97.22;98521.17;1785056;77;21234;-60
2022/11/10 12:23:30;;;;;;;23.07;18.30;;;;;;;10.38;96.86;98535.38;1804125;79;20999;-59
2022/11/10 12:26:27;;;;;;;26.12;20.82;;;;;;;10.38;96.92;98533.23;1806382;79;20988;-60
2022/11/10 12:29:31;;;;;;;26.23;19.67;;;;;;;10.39;96.68;98532.17;1804927;77;21542;-58
2022/11/10 12:32:46;;;;;;;27.27;19.67;;;;;;;10.42;96.61;98535.09;1810187;79;20990;-59
2022/11/10 12:35:35;;;;;;;20.72;17.30;;;;;;;10.43;96.32;98534.55;1804075;79;21228;-59
2022/11/10 12:38:25;;;;;;;24.07;17.75;;;;;;;10.39;96.20;98539.64;1783338;77;21071;-59
2022/11/10 12:41:18;;;;;;;21.48;18.07;;;;;;;10.32;96.34;98547.17;1804821;79;21002;-59
2022/11/10 12:44:26;;;;;;;20.20;17.70;;;;;;;10.27;96.48;98553.89;1767744;77;21428;-59
2022/11/10 12:47:15;;;;;;;22.17;18.95;;;;;;;10.23;96.62;98544.81;1807417;79;21013;-58
2022/11/10 12:50:29;;;;;;;37.00;28.15;;;;;;;10.16;96.81;98549.66;1787669;79;21122;-59
2022/11/10 12:53:37;;;;;;;35.88;27.48;;;;;;;10.11;97.13;98543.79;1811098;79;21525;-59
2022/11/10 12:56:32;;;;;;;36.65;26.57;;;;;;;10.11;97.61;98545.13;1808807;77;20967;-60
2022/11/10 12:59:31;;;;;;;31.97;26.02;;;;;;;10.08;97.80;98550.21;1808066;77;20971;-60
2022/11/10 13:02:40;;;;;;;32.95;26.42;;;;;;;10.06;98.14;98560.36;1806108;78;21532;-60
2022/11/10 13:05:40;;;;;;;26.12;20.17;;;;;;;10.03;98.46;98556.91;1803736;79;21109;-59
2022/11/10 13:08:31;;;;;;;27.85;24.18;;;;;;;10.04;98.98;98556.62;1783899;79;21541;-59
2022/11/10 13:11:29;;;;;;;27.93;24.72;;;;;;;10.05;99.08;98557.44;1803358;79;20935;-59
2022/11/10 13:14:33;;;;;;;26.90;22.42;;;;;;;10.03;99.28;98563.05;1802863;77;21038;-60
2022/11/10 13:17:42;;;;;;;26.80;22.73;;;;;;;10.01;99.57;98564.42;1799964;77;21079;-59
2022/11/10 13:20:49;;;;;;;27.27;22.87;;;;;;;9.97;99.82;98576.72;1799996;77;21183;-60
2022/11/10 13:23:56;;;;;;;30.37;24.02;;;;;;;9.95;100.00;98568.98;1800998;77;21071;-58
2022/11/10 13:26:52;;;;;;;30.48;23.52;;;;;;;9.93;100.00;98575.67;1802050;79;20991;-59
2022/11/10 13:29:54;;;;;;;29.57;24.85;;;;;;;9.91;100.00;98579.97;1802839;77;21031;-59
2022/11/10 13:32:40;;;;;;;30.80;23.20;;;;;;;9.90;100.00;98580.22;1802412;79;21098;-59
2022/11/10 13:35:38;;;;;;;26.62;20.65;;;;;;;9.89;100.00;98585.32;1816247;77;21140;-59
2022/11/10 13:38:42;;;;;;;28.25;23.35;;;;;;;9.88;100.00;98582.36;1802942;79;20974;-59
2022/11/10 13:41:29;;;;;;;36.40;26.45;;;;;;;9.87;100.00;98586.13;1805582;79;21040;-59